createdAt,value
2023-03-11T00:01:05.067Z,16.85
2023-03-11T00:03:34.955Z,18.55
2023-03-11T00:06:05.726Z,18.00
2023-03-11T00:08:38.240Z,18.02
2023-03-11T00:11:08.291Z,17.35
2023-03-11T00:13:39.438Z,16.70
2023-03-11T00:16:10.177Z,17.35
2023-03-11T00:18:40.132Z,14.57
2023-03-11T00:21:18.793Z,18.08
2023-03-11T00:23:51.277Z,18.23
2023-03-11T00:26:21.366Z,18.50
2023-03-11T00:28:51.304Z,18.58
2023-03-11T00:31:21.599Z,20.35
2023-03-11T00:33:52.009Z,19.88
2023-03-11T00:36:28.856Z,20.17
2023-03-11T00:39:02.380Z,20.52
2023-03-11T00:41:32.272Z,20.80
2023-03-11T00:44:02.202Z,20.83
2023-03-11T00:46:32.505Z,20.05
2023-03-11T00:49:02.449Z,18.90
2023-03-11T00:51:34.180Z,19.58
2023-03-11T00:54:06.959Z,19.75
2023-03-11T00:56:36.782Z,20.38
2023-03-11T00:59:06.644Z,19.40
2023-03-11T01:01:36.647Z,18.67
2023-03-11T01:04:06.645Z,19.27
2023-03-11T01:06:45.155Z,17.05
2023-03-11T01:09:18.193Z,18.67
2023-03-11T01:11:48.068Z,18.40
2023-03-11T01:14:18.006Z,15.43
2023-03-11T01:16:47.889Z,16.90
2023-03-11T01:19:18.067Z,17.13
2023-03-11T01:21:47.928Z,17.65
2023-03-11T01:24:20.597Z,14.82
2023-03-11T01:26:50.463Z,16.23
2023-03-11T01:29:20.325Z,16.67
2023-03-11T01:31:50.206Z,17.15
2023-03-11T01:34:20.120Z,18.45
2023-03-11T01:36:49.980Z,16.73
2023-03-11T01:39:22.521Z,16.50
2023-03-11T01:41:53.158Z,18.38
2023-03-11T01:44:23.017Z,16.98
2023-03-11T01:47:36.828Z,19.38
2023-03-11T01:50:12.273Z,18.50
2023-03-11T01:52:44.049Z,15.25
2023-03-11T01:55:17.960Z,19.05
2023-03-11T01:57:50.098Z,17.88
2023-03-11T02:00:20.637Z,16.63
2023-03-11T02:02:54.717Z,17.85
2023-03-11T02:05:26.210Z,18.40
2023-03-11T02:07:58.165Z,15.88
2023-03-11T02:10:30.867Z,16.00
2023-03-11T02:13:01.110Z,16.50
2023-03-11T02:15:31.614Z,14.60
2023-03-11T02:18:04.878Z,14.93
2023-03-11T02:20:46.878Z,13.48
2023-03-11T02:23:18.379Z,14.10
2023-03-11T02:25:58.890Z,12.00
2023-03-11T02:28:34.369Z,11.02
2023-03-11T02:31:04.905Z,11.43
2023-03-11T02:33:37.996Z,11.90
2023-03-11T02:36:09.390Z,10.30
2023-03-11T02:38:39.359Z,9.48
2023-03-11T02:41:09.840Z,7.78
2023-03-11T02:43:46.823Z,4.45
2023-03-11T02:46:17.935Z,5.32
2023-03-11T02:48:48.442Z,3.67
2023-03-11T02:51:18.473Z,3.63
2023-03-11T02:53:52.476Z,3.08
2023-03-11T02:56:22.547Z,3.03
2023-03-11T02:58:55.011Z,3.65
2023-03-11T03:01:25.228Z,2.15
2023-03-11T03:03:55.140Z,2.67
2023-03-11T03:06:25.150Z,2.85
2023-03-11T03:08:55.016Z,3.15
2023-03-11T03:11:24.949Z,3.65
2023-03-11T03:13:57.417Z,3.55
2023-03-11T03:16:27.390Z,3.33
2023-03-11T03:18:57.292Z,3.70
2023-03-11T03:21:27.184Z,3.45
2023-03-11T03:23:57.087Z,3.15
2023-03-11T03:26:26.966Z,3.53
2023-03-11T03:28:59.406Z,2.60
2023-03-11T03:31:29.298Z,3.13
2023-03-11T03:33:59.183Z,3.67
2023-03-11T03:36:29.065Z,3.38
2023-03-11T03:39:01.148Z,3.33
2023-03-11T03:41:31.282Z,3.67
2023-03-11T03:44:03.877Z,3.47
2023-03-11T03:46:33.725Z,3.65
2023-03-11T03:49:03.665Z,4.50
2023-03-11T03:51:33.527Z,3.45
2023-03-11T03:54:03.403Z,4.60
2023-03-11T03:56:33.272Z,4.82
2023-03-11T03:59:05.804Z,4.68
2023-03-11T04:01:35.667Z,3.55
2023-03-11T04:04:05.548Z,3.75
2023-03-11T04:06:35.522Z,4.13
2023-03-11T04:09:05.387Z,4.15
2023-03-11T04:11:35.868Z,4.70
2023-03-11T04:14:09.275Z,4.55
2023-03-11T04:16:39.206Z,3.97
2023-03-11T04:19:09.202Z,3.58
2023-03-11T04:21:39.096Z,4.70
2023-03-11T04:24:09.602Z,5.35
2023-03-11T04:26:39.747Z,4.93
2023-03-11T04:29:12.367Z,4.57
2023-03-11T04:31:42.229Z,4.80
2023-03-11T04:34:12.075Z,4.15
2023-03-11T04:36:41.981Z,5.22
2023-03-11T04:39:12.146Z,5.03
2023-03-11T04:41:41.998Z,5.55
2023-03-11T04:44:14.521Z,5.05
2023-03-11T04:46:44.405Z,5.05
2023-03-11T04:49:14.266Z,5.47
2023-03-11T04:51:44.560Z,5.43
2023-03-11T04:54:14.428Z,5.38
2023-03-11T04:56:44.302Z,5.20
2023-03-11T04:59:16.732Z,4.55
2023-03-11T05:01:46.724Z,4.25
2023-03-11T05:04:17.389Z,4.80
2023-03-11T05:06:47.269Z,4.82
2023-03-11T05:09:17.132Z,5.50
2023-03-11T05:11:46.994Z,5.43
2023-03-11T05:14:19.437Z,5.03
2023-03-11T05:16:49.315Z,3.17
2023-03-11T05:19:35.197Z,5.07
2023-03-11T05:22:06.646Z,4.82
2023-03-11T05:24:37.213Z,4.82
2023-03-11T05:27:08.154Z,5.07
2023-03-11T05:29:40.869Z,5.30
2023-03-11T05:32:11.021Z,4.93
2023-03-11T05:34:41.123Z,4.90
2023-03-11T05:37:11.238Z,4.38
2023-03-11T05:39:41.110Z,4.40
2023-03-11T05:42:11.985Z,4.75
2023-03-11T05:44:44.721Z,4.72
2023-03-11T05:47:14.614Z,4.70
2023-03-11T05:49:44.451Z,5.38
2023-03-11T05:52:14.297Z,4.30
2023-03-11T05:54:44.286Z,7.30
2023-03-11T05:57:14.163Z,5.13
2023-03-11T05:59:46.757Z,5.50
2023-03-11T06:02:16.678Z,12.45
2023-03-11T06:04:46.711Z,8.27
2023-03-11T06:07:16.642Z,5.55
2023-03-11T06:09:46.488Z,5.43
2023-03-11T06:12:16.342Z,5.45
2023-03-11T06:14:49.039Z,6.07
2023-03-11T06:17:18.895Z,5.90
2023-03-11T06:19:48.778Z,4.97
2023-03-11T06:22:18.656Z,4.47
2023-03-11T06:24:48.538Z,5.60
2023-03-11T06:27:18.420Z,5.78
2023-03-11T06:29:56.160Z,5.22
2023-03-11T06:32:26.048Z,5.85
2023-03-11T06:34:56.418Z,5.93
2023-03-11T06:37:26.804Z,4.80
2023-03-11T06:39:57.670Z,6.20
2023-03-11T06:42:27.553Z,5.53
2023-03-11T06:45:00.171Z,6.13
2023-03-11T06:47:30.222Z,6.05
2023-03-11T06:50:00.114Z,5.43
2023-03-11T06:52:30.023Z,6.55
2023-03-11T06:54:59.866Z,5.82
2023-03-11T06:57:30.993Z,5.28
2023-03-11T07:00:06.251Z,6.50
2023-03-11T07:02:36.085Z,10.30
2023-03-11T07:05:07.167Z,6.57
2023-03-11T07:07:37.238Z,15.30
2023-03-11T07:10:08.804Z,8.23
2023-03-11T07:12:39.093Z,5.47
2023-03-11T07:15:14.591Z,5.25
2023-03-11T07:17:44.485Z,6.43
2023-03-11T07:20:16.397Z,5.85
2023-03-11T07:22:46.295Z,6.05
2023-03-11T07:25:16.419Z,4.82
2023-03-11T07:27:46.304Z,2.72
2023-03-11T07:30:20.540Z,6.93
2023-03-11T07:32:50.520Z,6.63
2023-03-11T07:35:20.397Z,8.38
2023-03-11T07:37:50.238Z,7.00
2023-03-11T07:40:20.465Z,6.50
2023-03-11T07:42:50.329Z,5.20
2023-03-11T07:45:22.814Z,6.93
2023-03-11T07:47:52.700Z,4.72
2023-03-11T07:50:23.155Z,6.18
2023-03-11T07:52:53.309Z,4.50
2023-03-11T07:55:23.223Z,6.30
2023-03-11T07:57:53.146Z,7.22
2023-03-11T08:00:26.242Z,6.85
2023-03-11T08:02:56.111Z,7.82
2023-03-11T08:05:25.971Z,8.18
2023-03-11T08:07:55.802Z,6.93
2023-03-11T08:10:25.702Z,7.20
2023-03-11T08:12:55.517Z,8.55
2023-03-11T08:15:27.977Z,8.45
2023-03-11T08:17:57.841Z,8.85
2023-03-11T08:20:27.850Z,7.53
2023-03-11T08:22:58.615Z,8.20
2023-03-11T08:25:28.717Z,8.32
2023-03-11T08:27:58.971Z,8.27
2023-03-11T08:30:31.442Z,7.00
2023-03-11T08:33:01.281Z,9.02
2023-03-11T08:35:31.310Z,7.88
2023-03-11T08:38:01.265Z,8.18
2023-03-11T08:40:31.194Z,8.95
2023-03-11T08:43:01.063Z,8.63
2023-03-11T08:45:33.489Z,8.82
2023-03-11T08:48:03.608Z,8.63
2023-03-11T08:50:41.278Z,9.32
2023-03-11T08:53:17.403Z,9.23
2023-03-11T08:55:47.308Z,8.82
2023-03-11T08:58:17.198Z,8.15
2023-03-11T09:00:50.514Z,9.73
2023-03-11T09:03:20.479Z,7.93
2023-03-11T09:05:50.333Z,9.55
2023-03-11T09:08:20.211Z,7.88
2023-03-11T09:10:50.037Z,7.57
2023-03-11T09:13:19.986Z,9.68
2023-03-11T09:15:53.315Z,8.95
2023-03-11T09:18:23.723Z,9.05
2023-03-11T09:20:58.294Z,7.60
2023-03-11T09:23:28.290Z,7.57
2023-03-11T09:25:58.182Z,8.20
2023-03-11T09:28:28.168Z,9.25
2023-03-11T09:31:00.706Z,10.13
2023-03-11T09:33:30.665Z,8.65
2023-03-11T09:36:01.168Z,8.65
2023-03-11T09:38:31.067Z,10.90
2023-03-11T09:41:05.789Z,9.82
2023-03-11T09:46:58.639Z,8.18
2023-03-11T09:49:39.192Z,7.25
2023-03-11T09:52:14.106Z,6.07
2023-03-11T09:54:49.371Z,7.97
2023-03-11T09:57:27.642Z,6.28
2023-03-11T09:59:58.908Z,7.35
2023-03-11T10:02:31.517Z,7.10
2023-03-11T10:05:06.791Z,8.27
2023-03-11T10:07:43.495Z,6.85
2023-03-11T10:10:17.566Z,8.75
2023-03-11T10:12:57.597Z,7.13
2023-03-11T10:15:39.617Z,8.07
2023-03-11T10:18:39.205Z,7.32
2023-03-11T10:21:25.504Z,7.25
2023-03-11T10:24:16.894Z,7.85
2023-03-11T10:26:50.875Z,8.88
2023-03-11T10:29:26.620Z,10.18
2023-03-11T10:32:03.772Z,7.45
2023-03-11T10:34:42.639Z,7.90
2023-03-11T10:37:17.323Z,8.45
2023-03-11T10:42:24.329Z,9.10
2023-03-11T10:47:26.655Z,6.60
2023-03-11T10:49:59.111Z,8.45
2023-03-11T10:52:28.947Z,7.72
2023-03-11T10:55:05.906Z,8.73
2023-03-11T10:57:39.929Z,6.55
2023-03-11T11:00:17.216Z,7.90
2023-03-11T11:02:58.220Z,6.70
2023-03-11T11:05:35.697Z,8.27
2023-03-11T11:08:12.332Z,7.55
2023-03-11T11:10:53.774Z,8.38
2023-03-11T11:13:26.815Z,8.27
2023-03-11T11:16:03.616Z,8.52
2023-03-11T11:18:37.788Z,9.02
2023-03-11T11:21:12.657Z,8.52
2023-03-11T11:23:46.310Z,7.63
2023-03-11T11:26:23.534Z,8.23
2023-03-11T11:29:10.838Z,9.77
2023-03-11T11:31:42.861Z,8.07
2023-03-11T11:34:33.098Z,9.40
2023-03-11T11:37:08.602Z,9.77
2023-03-11T11:39:52.061Z,7.25
2023-03-11T11:42:27.286Z,7.95
2023-03-11T11:45:02.798Z,9.00
2023-03-11T11:47:38.084Z,9.05
2023-03-11T11:50:17.629Z,10.07
2023-03-11T11:52:56.476Z,10.13
2023-03-11T11:55:30.641Z,8.80
2023-03-11T11:58:00.829Z,9.07
2023-03-11T12:00:40.632Z,9.68
2023-03-11T12:03:30.198Z,9.00
2023-03-11T12:06:02.942Z,9.57
2023-03-11T12:08:43.169Z,10.68
2023-03-11T12:11:23.617Z,11.13
2023-03-11T12:14:06.068Z,10.93
2023-03-11T12:16:45.334Z,11.60
2023-03-11T12:19:26.691Z,12.13
2023-03-11T12:22:34.468Z,12.13
2023-03-11T12:25:35.089Z,12.73
2023-03-11T12:28:19.129Z,13.13
2023-03-11T12:30:53.464Z,14.10
2023-03-11T12:33:32.651Z,11.82
2023-03-11T12:36:03.942Z,13.30
2023-03-11T12:38:36.142Z,11.82
2023-03-11T12:41:11.194Z,11.65
2023-03-11T12:44:07.315Z,11.95
2023-03-11T12:47:21.433Z,14.07
2023-03-11T12:49:54.854Z,12.38
2023-03-11T12:52:34.411Z,11.45
2023-03-11T12:55:34.566Z,11.13
2023-03-11T12:58:50.271Z,11.38
2023-03-11T13:01:54.026Z,12.20
2023-03-11T13:04:34.494Z,12.07
2023-03-11T13:07:39.206Z,11.23
2023-03-11T13:10:36.702Z,12.35
2023-03-11T13:13:32.496Z,10.05
2023-03-11T13:16:41.360Z,10.80
2023-03-11T13:19:38.755Z,13.88
2023-03-11T13:22:47.132Z,12.00
2023-03-11T13:25:38.160Z,12.88
2023-03-11T13:28:32.731Z,13.00
2023-03-11T13:31:22.967Z,13.43
2023-03-11T13:33:55.345Z,12.85
2023-03-11T13:37:00.292Z,14.10
2023-03-11T13:39:48.892Z,14.30
2023-03-11T13:42:29.861Z,13.52
2023-03-11T13:45:00.923Z,14.00
2023-03-11T13:47:34.550Z,12.90
2023-03-11T13:50:08.861Z,14.38
2023-03-11T13:52:42.594Z,12.40
2023-03-11T13:55:21.611Z,15.77
2023-03-11T13:57:57.417Z,9.48
2023-03-11T14:00:29.943Z,11.88
2023-03-11T14:03:06.836Z,10.70
2023-03-11T14:05:39.546Z,10.85
2023-03-11T14:08:23.245Z,11.30
2023-03-11T14:10:57.400Z,9.15
2023-03-11T14:13:30.083Z,7.68
2023-03-11T14:16:08.080Z,8.50
2023-03-11T14:18:43.012Z,8.23
2023-03-11T14:21:18.502Z,7.07
2023-03-11T14:23:52.337Z,7.47
2023-03-11T14:26:25.332Z,7.90
2023-03-11T14:28:58.985Z,6.97
2023-03-11T14:31:37.954Z,6.47
2023-03-11T14:34:18.799Z,6.55
2023-03-11T14:36:54.322Z,6.93
2023-03-11T14:39:33.571Z,6.47
2023-03-11T14:42:12.313Z,11.18
2023-03-11T14:44:44.861Z,7.38
2023-03-11T14:47:21.796Z,6.18
2023-03-11T14:49:56.020Z,6.50
2023-03-11T14:52:37.414Z,6.18
2023-03-11T14:55:15.762Z,5.93
2023-03-11T14:57:50.810Z,5.25
2023-03-11T15:00:25.325Z,5.60
2023-03-11T15:03:07.482Z,6.40
2023-03-11T15:05:46.904Z,5.13
2023-03-11T15:08:22.666Z,6.50
2023-03-11T15:11:28.490Z,5.53
2023-03-11T15:16:42.023Z,4.90
2023-03-11T15:19:34.853Z,5.18
2023-03-11T15:22:26.378Z,5.32
2023-03-11T15:24:59.221Z,5.10
2023-03-11T15:27:35.457Z,5.25
2023-03-11T15:30:08.478Z,5.32
2023-03-11T15:32:43.854Z,5.50
2023-03-11T15:35:20.928Z,5.90
2023-03-11T15:38:14.677Z,6.47
2023-03-11T15:40:56.107Z,5.32
2023-03-11T15:43:32.404Z,5.10
2023-03-11T15:46:05.403Z,5.80
2023-03-11T15:48:35.275Z,6.32
2023-03-11T15:51:05.198Z,5.85
2023-03-11T15:53:37.621Z,5.68
2023-03-11T15:56:17.558Z,5.20
2023-03-11T15:58:47.434Z,5.53
2023-03-11T16:01:18.419Z,5.65
2023-03-11T16:03:48.315Z,5.43
2023-03-11T16:06:18.210Z,5.70
2023-03-11T16:08:50.643Z,9.77
2023-03-11T16:11:21.370Z,6.47
2023-03-11T16:13:51.223Z,5.50
2023-03-11T16:16:21.410Z,5.53
2023-03-11T16:18:58.382Z,5.15
2023-03-11T16:21:36.720Z,5.03
2023-03-11T16:24:11.132Z,4.93
2023-03-11T16:26:41.099Z,5.07
2023-03-11T16:29:18.932Z,4.85
2023-03-11T16:31:49.892Z,4.30
2023-03-11T16:34:19.773Z,5.55
2023-03-11T16:36:49.627Z,4.63
2023-03-11T16:39:22.089Z,4.60
2023-03-11T16:41:51.934Z,5.20
2023-03-11T16:44:21.791Z,5.32
2023-03-11T16:46:51.726Z,4.95
2023-03-11T16:49:21.727Z,5.07
2023-03-11T16:51:51.594Z,5.75
2023-03-11T16:54:24.058Z,4.75
2023-03-11T16:56:53.897Z,4.80
2023-03-11T16:59:23.736Z,4.63
2023-03-11T17:01:53.642Z,4.82
2023-03-11T17:04:23.524Z,3.90
2023-03-11T17:06:53.393Z,4.15
2023-03-11T17:09:26.322Z,5.85
2023-03-11T17:11:56.158Z,5.00
2023-03-11T17:14:26.614Z,6.40
2023-03-11T17:16:56.481Z,4.93
2023-03-11T17:19:26.783Z,5.18
2023-03-11T17:21:57.714Z,5.55
2023-03-11T17:24:30.277Z,5.43
2023-03-11T17:27:00.247Z,5.43
2023-03-11T17:29:30.189Z,5.50
2023-03-11T17:32:00.187Z,5.88
2023-03-11T17:34:30.121Z,6.15
2023-03-11T17:37:00.029Z,5.53
2023-03-11T17:39:32.501Z,6.30
2023-03-11T17:42:02.372Z,6.53
2023-03-11T17:44:48.317Z,8.20
2023-03-11T17:47:21.412Z,8.88
2023-03-11T17:49:52.751Z,8.75
2023-03-11T17:52:22.723Z,9.43
2023-03-11T17:54:56.602Z,40.00
2023-03-11T17:57:26.474Z,69.57
2023-03-11T17:59:56.569Z,61.50
2023-03-11T18:02:26.710Z,47.83
2023-03-11T18:04:56.792Z,19.83
2023-03-11T18:07:26.798Z,12.20
2023-03-11T18:09:59.247Z,11.23
2023-03-11T18:12:29.130Z,14.95
2023-03-11T18:14:58.985Z,26.35
2023-03-11T18:17:29.047Z,26.60
2023-03-11T18:19:59.610Z,16.55
2023-03-11T18:22:30.057Z,13.93
2023-03-11T18:25:02.498Z,13.68
2023-03-11T18:27:32.344Z,12.05
2023-03-11T18:30:02.459Z,6.68
2023-03-11T18:32:32.369Z,7.95
2023-03-11T18:35:02.264Z,7.07
2023-03-11T18:37:32.114Z,6.82
2023-03-11T18:40:05.872Z,8.05
2023-03-11T18:42:35.840Z,8.13
2023-03-11T18:45:06.048Z,12.32
2023-03-11T18:47:37.654Z,11.55
2023-03-11T18:50:08.265Z,9.88
2023-03-11T18:52:38.118Z,7.80
2023-03-11T18:55:11.634Z,9.15
2023-03-11T18:57:43.262Z,7.85
2023-03-11T19:00:16.654Z,8.38
2023-03-11T19:02:46.530Z,8.45
2023-03-11T19:05:16.442Z,9.70
2023-03-11T19:07:46.367Z,8.93
2023-03-11T19:10:20.174Z,8.88
2023-03-11T19:12:50.194Z,8.50
2023-03-11T19:15:21.226Z,7.35
2023-03-11T19:18:04.281Z,7.05
2023-03-11T19:20:36.169Z,7.07
2023-03-11T19:23:06.788Z,6.93
2023-03-11T19:25:39.299Z,6.82
2023-03-11T19:28:09.150Z,7.75
2023-03-11T19:30:39.019Z,7.00
2023-03-11T19:33:08.947Z,7.30
2023-03-11T19:35:39.574Z,6.85
2023-03-11T19:38:09.511Z,6.68
2023-03-11T19:40:41.935Z,6.57
2023-03-11T19:43:13.822Z,6.90
2023-03-11T19:45:43.739Z,6.78
2023-03-11T19:48:13.616Z,7.20
2023-03-11T19:50:43.472Z,6.82
2023-03-11T19:53:13.370Z,6.60
2023-03-11T19:55:48.910Z,5.93
2023-03-11T19:58:18.836Z,6.50
2023-03-11T20:00:49.174Z,6.38
2023-03-11T20:03:20.845Z,6.03
2023-03-11T20:05:54.689Z,6.35
2023-03-11T20:08:27.103Z,6.30
2023-03-11T20:11:04.299Z,5.90
2023-03-11T20:13:36.419Z,5.15
2023-03-11T20:16:12.539Z,5.85
2023-03-11T20:18:42.660Z,5.30
2023-03-11T20:21:15.011Z,5.97
2023-03-11T20:23:44.879Z,6.20
2023-03-11T20:26:21.203Z,5.25
2023-03-11T20:28:51.293Z,5.50
2023-03-11T20:31:23.607Z,6.15
2023-03-11T20:33:55.207Z,6.25
2023-03-11T20:36:27.529Z,5.68
2023-03-11T20:38:58.898Z,5.90
2023-03-11T20:41:37.362Z,5.47
2023-03-11T20:44:09.841Z,4.85
2023-03-11T20:46:39.786Z,4.78
2023-03-11T20:49:09.814Z,5.00
2023-03-11T20:51:41.806Z,4.50
2023-03-11T20:54:12.299Z,4.75
2023-03-11T20:56:45.095Z,5.15
2023-03-11T20:59:16.520Z,4.70
2023-03-11T21:01:46.697Z,4.60
2023-03-11T21:04:16.886Z,4.13
2023-03-11T21:06:47.213Z,5.00
2023-03-11T21:09:18.284Z,5.35
2023-03-11T21:11:53.628Z,4.32
2023-03-11T21:14:23.502Z,4.40
2023-03-11T21:17:02.341Z,4.85
2023-03-11T21:19:32.558Z,3.83
2023-03-11T21:22:02.762Z,5.13
2023-03-11T21:24:32.735Z,4.85
2023-03-11T21:27:05.327Z,4.90
2023-03-11T21:29:35.252Z,4.47
2023-03-11T21:32:05.168Z,4.88
2023-03-11T21:34:35.217Z,4.00
2023-03-11T21:37:05.119Z,3.70
2023-03-11T21:39:35.013Z,3.90
2023-03-11T21:42:07.990Z,4.47
2023-03-11T21:44:37.865Z,4.68
2023-03-11T21:47:08.196Z,5.25
2023-03-11T21:49:38.807Z,4.35
2023-03-11T21:52:09.555Z,4.43
2023-03-11T21:54:39.489Z,3.65
2023-03-11T21:57:11.947Z,3.63
2023-03-11T21:59:41.811Z,4.38
2023-03-11T22:02:17.761Z,4.43
2023-03-11T22:04:48.571Z,4.07
2023-03-11T22:07:18.581Z,4.00
2023-03-11T22:09:48.614Z,4.43
2023-03-11T22:12:21.204Z,3.80
2023-03-11T22:14:51.365Z,4.15
2023-03-11T22:17:21.291Z,4.82
2023-03-11T22:19:51.246Z,5.78
2023-03-11T22:22:21.190Z,10.82
2023-03-11T22:24:51.102Z,9.40
2023-03-11T22:27:23.545Z,3.95
2023-03-11T22:29:53.567Z,4.28
2023-03-11T22:32:23.497Z,3.70
2023-03-11T22:34:53.590Z,3.88
2023-03-11T22:37:23.436Z,3.50
2023-03-11T22:39:53.541Z,4.05
2023-03-11T22:42:25.995Z,4.20
2023-03-11T22:44:55.835Z,3.50
2023-03-11T22:47:25.725Z,3.50
2023-03-11T22:49:55.668Z,3.85
2023-03-11T22:52:25.514Z,3.33
2023-03-11T22:54:55.742Z,3.58
2023-03-11T22:57:28.336Z,3.70
2023-03-11T22:59:58.194Z,3.50
2023-03-11T23:02:28.123Z,3.53
2023-03-11T23:04:57.972Z,3.17
2023-03-11T23:07:27.866Z,3.38
2023-03-11T23:09:58.304Z,2.88
2023-03-11T23:12:30.770Z,2.97
2023-03-11T23:15:00.601Z,3.42
2023-03-11T23:17:30.444Z,3.47
2023-03-11T23:20:00.568Z,3.40
2023-03-11T23:22:30.435Z,3.05
2023-03-11T23:25:04.676Z,3.20
2023-03-11T23:27:37.306Z,3.63
2023-03-11T23:30:09.909Z,3.10
2023-03-11T23:32:41.054Z,3.22
2023-03-11T23:35:12.081Z,3.58
2023-03-11T23:37:42.490Z,3.40
2023-03-11T23:40:14.385Z,3.45
2023-03-11T23:42:47.016Z,3.50
2023-03-11T23:45:16.927Z,3.25
2023-03-11T23:47:46.843Z,3.72
2023-03-11T23:50:16.770Z,3.17
2023-03-11T23:52:46.961Z,3.28
2023-03-11T23:55:17.059Z,3.03
2023-03-11T23:57:49.462Z,3.35
